VCTRY47 KNTU-KNTU
Flight info
| Callsign | VCTRY47 |
|---|---|
| Flight time | 1h 46m |
| Altitude | 17000 |
| Route | CANOB KW36A HOBOH ZIBUT KW45A IMELL KW36A ZINEP ROWZO HUGEE HENIP WENID |
| Aircraft | F18/H-A/C |
Departure
| Time | 2026-04-17 09:58 |
|---|---|
| Airport | Oceana Naval Air Station (KNTU) |
Arrival
| Time | 2026-04-17 11:45 |
|---|---|
| Airport | Oceana Naval Air Station (KNTU) |
| Time | Latitude | Longitude | Altitude | Speed | Heading |
|---|---|---|---|---|---|
| 2026-04-17 09:48 | 36.81693 | -76.03385 | 30 ft | 0 kts | 45° |
| 2026-04-17 09:50 | 36.81734 | -76.03391 | 30 ft | 16 kts | 307° |
| 2026-04-17 09:50 | 36.81799 | -76.03463 | 30 ft | 9 kts | 346° |
| 2026-04-17 09:50 | 36.81874 | -76.03400 | 30 ft | 7 kts | 44° |
| 2026-04-17 09:51 | 36.81920 | -76.03346 | 30 ft | 25 kts | 41° |
| 2026-04-17 09:51 | 36.82047 | -76.03208 | 30 ft | 17 kts | 41° |
| 2026-04-17 09:51 | 36.82097 | -76.03152 | 30 ft | 0 kts | 42° |
| 2026-04-17 09:53 | 36.82175 | -76.03067 | 30 ft | 33 kts | 41° |
| 2026-04-17 09:54 | 36.82341 | -76.02878 | 30 ft | 30 kts | 41° |
| 2026-04-17 09:54 | 36.82475 | -76.02727 | 30 ft | 28 kts | 41° |
| 2026-04-17 09:54 | 36.82625 | -76.02559 | 30 ft | 28 kts | 42° |
| 2026-04-17 09:54 | 36.82768 | -76.02400 | 30 ft | 27 kts | 41° |
| 2026-04-17 09:55 | 36.82827 | -76.02334 | 30 ft | 0 kts | 42° |
| 2026-04-17 09:55 | 36.82872 | -76.02283 | 30 ft | 26 kts | 41° |
| 2026-04-17 09:55 | 36.83023 | -76.02111 | 30 ft | 32 kts | 43° |
| 2026-04-17 09:56 | 36.83156 | -76.01963 | 30 ft | 19 kts | 43° |
| 2026-04-17 09:56 | 36.83195 | -76.01964 | 30 ft | 22 kts | 242° |
| 2026-04-17 09:56 | 36.83086 | -76.01984 | 30 ft | 17 kts | 144° |
| 2026-04-17 09:56 | 36.83080 | -76.01977 | 30 ft | 0 kts | 126° |
| 2026-04-17 09:57 | 36.83070 | -76.01976 | 30 ft | 2 kts | 229° |
| 2026-04-17 09:57 | 36.83090 | -76.02066 | 30 ft | 20 kts | 249° |
| 2026-04-17 09:57 | 36.82990 | -76.02240 | 30 ft | 20 kts | 225° |
| 2026-04-17 09:57 | 36.82576 | -76.02711 | 88 ft | 150 kts | 221° |
| 2026-04-17 09:58 | 36.81650 | -76.03644 | 560 ft | 192 kts | 209° |
| 2026-04-17 09:58 | 36.80148 | -76.03828 | 962 ft | 260 kts | 167° |
| 2026-04-17 09:58 | 36.78557 | -76.02705 | 1465 ft | 266 kts | 134° |
| 2026-04-17 09:58 | 36.77725 | -76.00636 | 1955 ft | 281 kts | 101° |
| 2026-04-17 09:59 | 36.77882 | -75.98204 | 2426 ft | 287 kts | 67° |
| 2026-04-17 09:59 | 36.78965 | -75.96111 | 2930 ft | 288 kts | 47° |
| 2026-04-17 09:59 | 36.80249 | -75.94173 | 3443 ft | 292 kts | 47° |
| 2026-04-17 09:59 | 36.81528 | -75.92217 | 3953 ft | 292 kts | 47° |
| 2026-04-17 10:00 | 36.82816 | -75.90237 | 4465 ft | 295 kts | 47° |
| 2026-04-17 10:00 | 36.84106 | -75.88243 | 4982 ft | 296 kts | 47° |
| 2026-04-17 10:00 | 36.85395 | -75.86227 | 5505 ft | 299 kts | 52° |
| 2026-04-17 10:00 | 36.86186 | -75.83864 | 5990 ft | 304 kts | 78° |
| 2026-04-17 10:01 | 36.86357 | -75.81178 | 6529 ft | 309 kts | 91° |
| 2026-04-17 10:01 | 36.86182 | -75.78512 | 7058 ft | 309 kts | 87° |
| 2026-04-17 10:01 | 36.86428 | -75.75837 | 7610 ft | 312 kts | 82° |
| 2026-04-17 10:01 | 36.86710 | -75.73197 | 8146 ft | 313 kts | 82° |
| 2026-04-17 10:02 | 36.86996 | -75.70479 | 8697 ft | 315 kts | 82° |
| 2026-04-17 10:02 | 36.87279 | -75.67764 | 9247 ft | 318 kts | 82° |
| 2026-04-17 10:02 | 36.87562 | -75.65007 | 9803 ft | 322 kts | 83° |
| 2026-04-17 10:02 | 36.87843 | -75.62215 | 10363 ft | 326 kts | 83° |
| 2026-04-17 10:03 | 36.88123 | -75.59407 | 10927 ft | 328 kts | 84° |
| 2026-04-17 10:03 | 36.88401 | -75.56561 | 11495 ft | 333 kts | 85° |
| 2026-04-17 10:03 | 36.88677 | -75.53697 | 12064 ft | 334 kts | 85° |
| 2026-04-17 10:03 | 36.88954 | -75.50789 | 12644 ft | 339 kts | 85° |
| 2026-04-17 10:04 | 36.89232 | -75.47849 | 13228 ft | 342 kts | 85° |
| 2026-04-17 10:04 | 36.89510 | -75.44884 | 13816 ft | 346 kts | 86° |
| 2026-04-17 10:04 | 36.89788 | -75.41878 | 14412 ft | 350 kts | 86° |
| 2026-04-17 10:04 | 36.90064 | -75.38864 | 15004 ft | 349 kts | 86° |
| 2026-04-17 10:05 | 36.90340 | -75.35810 | 15609 ft | 356 kts | 86° |
| 2026-04-17 10:05 | 36.90616 | -75.32718 | 16218 ft | 361 kts | 86° |
| 2026-04-17 10:05 | 36.90892 | -75.29592 | 16834 ft | 365 kts | 86° |
| 2026-04-17 10:05 | 36.91167 | -75.26422 | 17457 ft | 368 kts | 87° |
| 2026-04-17 10:06 | 36.91442 | -75.23216 | 17686 ft | 371 kts | 87° |
| 2026-04-17 10:06 | 36.91714 | -75.20023 | 17666 ft | 370 kts | 87° |
| 2026-04-17 10:06 | 36.91982 | -75.16837 | 17714 ft | 371 kts | 87° |
| 2026-04-17 10:06 | 36.92247 | -75.13626 | 17703 ft | 371 kts | 87° |
| 2026-04-17 10:07 | 36.92508 | -75.10430 | 17694 ft | 370 kts | 87° |
| 2026-04-17 10:07 | 36.92767 | -75.07229 | 17701 ft | 370 kts | 87° |
| 2026-04-17 10:07 | 36.93022 | -75.04023 | 17702 ft | 371 kts | 88° |
| 2026-04-17 10:07 | 36.93273 | -75.00826 | 17699 ft | 369 kts | 88° |
| 2026-04-17 10:08 | 36.93520 | -74.97635 | 17700 ft | 370 kts | 88° |
| 2026-04-17 10:08 | 36.93764 | -74.94435 | 17699 ft | 368 kts | 88° |
| 2026-04-17 10:08 | 36.94003 | -74.91245 | 17701 ft | 370 kts | 88° |
| 2026-04-17 10:08 | 36.94239 | -74.88042 | 17700 ft | 369 kts | 88° |
| 2026-04-17 10:09 | 36.94469 | -74.84858 | 17700 ft | 369 kts | 88° |
| 2026-04-17 10:09 | 36.94695 | -74.81661 | 17701 ft | 370 kts | 88° |
| 2026-04-17 10:09 | 36.94917 | -74.78459 | 17699 ft | 368 kts | 88° |
| 2026-04-17 10:09 | 36.95134 | -74.75267 | 17699 ft | 369 kts | 88° |
| 2026-04-17 10:10 | 36.95346 | -74.72070 | 17700 ft | 369 kts | 88° |
| 2026-04-17 10:10 | 36.95557 | -74.68996 | 17691 ft | 336 kts | 85° |
| 2026-04-17 10:10 | 36.95753 | -74.66138 | 17706 ft | 330 kts | 85° |
| 2026-04-17 10:11 | 36.96154 | -74.59817 | 17687 ft | 389 kts | 85° |
| 2026-04-17 10:11 | 36.96355 | -74.56444 | 17706 ft | 391 kts | 86° |
| 2026-04-17 10:11 | 36.96549 | -74.53048 | 17701 ft | 391 kts | 86° |
| 2026-04-17 10:11 | 36.96733 | -74.49654 | 17698 ft | 391 kts | 86° |
| 2026-04-17 10:12 | 36.96906 | -74.46256 | 17701 ft | 391 kts | 86° |
| 2026-04-17 10:12 | 36.97066 | -74.42866 | 17700 ft | 391 kts | 86° |
| 2026-04-17 10:12 | 36.97213 | -74.39469 | 17700 ft | 391 kts | 87° |
| 2026-04-17 10:12 | 36.97343 | -74.36076 | 17700 ft | 391 kts | 87° |
| 2026-04-17 10:13 | 36.97419 | -74.33821 | 17700 ft | 391 kts | 88° |
| 2026-04-17 10:13 | 36.97532 | -74.29287 | 17699 ft | 391 kts | 89° |
| 2026-04-17 10:13 | 36.97573 | -74.25892 | 17700 ft | 391 kts | 89° |
| 2026-04-17 10:13 | 36.97580 | -74.23635 | 17700 ft | 391 kts | 90° |
| 2026-04-17 10:14 | 36.97608 | -74.20236 | 17693 ft | 391 kts | 84° |
| 2026-04-17 10:14 | 36.98362 | -74.16992 | 17709 ft | 391 kts | 62° |
| 2026-04-17 10:14 | 37.00035 | -74.14333 | 17704 ft | 391 kts | 39° |
| 2026-04-17 10:14 | 37.02381 | -74.12655 | 17697 ft | 391 kts | 17° |
| 2026-04-17 10:15 | 37.05059 | -74.12203 | 17701 ft | 391 kts | 355° |
| 2026-04-17 10:15 | 37.07683 | -74.13044 | 17701 ft | 391 kts | 333° |
| 2026-04-17 10:15 | 37.09861 | -74.15057 | 17700 ft | 391 kts | 311° |
| 2026-04-17 10:15 | 37.11271 | -74.17937 | 17700 ft | 391 kts | 289° |
| 2026-04-17 10:16 | 37.11716 | -74.21281 | 17700 ft | 391 kts | 267° |
| 2026-04-17 10:16 | 37.11126 | -74.24586 | 17700 ft | 391 kts | 245° |
| 2026-04-17 10:16 | 37.09589 | -74.27368 | 17700 ft | 391 kts | 223° |
| 2026-04-17 10:16 | 37.07329 | -74.29225 | 17700 ft | 391 kts | 201° |
| 2026-04-17 10:17 | 37.04673 | -74.29886 | 17700 ft | 391 kts | 179° |
| 2026-04-17 10:17 | 37.02039 | -74.29162 | 17247 ft | 389 kts | 152° |
| 2026-04-17 10:17 | 37.00151 | -74.26875 | 16806 ft | 382 kts | 121° |
| 2026-04-17 10:17 | 36.98832 | -74.23957 | 17282 ft | 388 kts | 115° |
| 2026-04-17 10:18 | 36.97800 | -74.20838 | 17581 ft | 387 kts | 114° |
| 2026-04-17 10:18 | 36.96823 | -74.17682 | 17647 ft | 391 kts | 105° |
| 2026-04-17 10:18 | 36.96261 | -74.14403 | 18337 ft | 389 kts | 99° |
| 2026-04-17 10:18 | 36.96027 | -74.10986 | 18752 ft | 395 kts | 88° |
| 2026-04-17 10:19 | 36.96517 | -74.07653 | 18487 ft | 395 kts | 67° |
| 2026-04-17 10:19 | 36.98083 | -74.04828 | 18589 ft | 395 kts | 42° |
| 2026-04-17 10:19 | 37.00402 | -74.02993 | 18553 ft | 396 kts | 19° |
| 2026-04-17 10:19 | 37.03073 | -74.02151 | 18533 ft | 396 kts | 8° |
| 2026-04-17 10:20 | 37.05803 | -74.02296 | 18552 ft | 396 kts | 344° |
| 2026-04-17 10:20 | 37.08147 | -74.03949 | 18527 ft | 390 kts | 301° |
| 2026-04-17 10:20 | 37.09035 | -74.07466 | 15554 ft | 481 kts | 260° |
| 2026-04-17 10:20 | 37.06512 | -74.10524 | 15206 ft | 554 kts | 203° |
| 2026-04-17 10:21 | 37.02756 | -74.12399 | 15283 ft | 608 kts | 201° |
| 2026-04-17 10:21 | 36.98706 | -74.14326 | 15321 ft | 630 kts | 199° |
| 2026-04-17 10:21 | 36.94437 | -74.15807 | 15351 ft | 646 kts | 189° |
| 2026-04-17 10:21 | 36.89920 | -74.16257 | 15339 ft | 657 kts | 178° |
| 2026-04-17 10:22 | 36.85367 | -74.15598 | 15341 ft | 663 kts | 167° |
| 2026-04-17 10:22 | 36.80964 | -74.13852 | 15340 ft | 667 kts | 156° |
| 2026-04-17 10:22 | 36.76891 | -74.11063 | 15352 ft | 661 kts | 142° |
| 2026-04-17 10:22 | 36.74305 | -74.07071 | 15493 ft | 546 kts | 105° |
| 2026-04-17 10:23 | 36.74814 | -74.02920 | 16151 ft | 478 kts | 48° |
| 2026-04-17 10:23 | 36.77479 | -74.00833 | 16332 ft | 439 kts | 9° |
| 2026-04-17 10:23 | 36.80250 | -74.01560 | 15907 ft | 409 kts | 325° |
| 2026-04-17 10:23 | 36.82533 | -74.03463 | 15891 ft | 383 kts | 327° |
| 2026-04-17 10:24 | 36.84762 | -74.05122 | 15881 ft | 361 kts | 330° |
| 2026-04-17 10:24 | 36.86890 | -74.06609 | 15893 ft | 340 kts | 331° |
| 2026-04-17 10:24 | 36.88880 | -74.07977 | 15892 ft | 322 kts | 331° |
| 2026-04-17 10:24 | 36.90812 | -74.09310 | 15888 ft | 305 kts | 331° |
| 2026-04-17 10:25 | 36.92637 | -74.10533 | 15896 ft | 287 kts | 333° |
| 2026-04-17 10:25 | 36.94308 | -74.11576 | 15891 ft | 246 kts | 334° |
| 2026-04-17 10:25 | 36.95688 | -74.12367 | 15859 ft | 192 kts | 347° |
| 2026-04-17 10:25 | 36.96789 | -74.12320 | 15442 ft | 164 kts | 6° |
| 2026-04-17 10:26 | 36.98221 | -74.12427 | 14336 ft | 246 kts | 338° |
| 2026-04-17 10:26 | 37.00021 | -74.13472 | 13955 ft | 334 kts | 332° |
| 2026-04-17 10:26 | 37.02511 | -74.15089 | 13933 ft | 475 kts | 332° |
| 2026-04-17 10:26 | 37.05822 | -74.17243 | 13922 ft | 583 kts | 332° |
| 2026-04-17 10:27 | 37.09184 | -74.19988 | 13951 ft | 575 kts | 319° |
| 2026-04-17 10:27 | 37.11765 | -74.23781 | 13932 ft | 574 kts | 297° |
| 2026-04-17 10:27 | 37.12937 | -74.28547 | 13959 ft | 575 kts | 278° |
| 2026-04-17 10:27 | 37.12997 | -74.33544 | 13927 ft | 576 kts | 262° |
| 2026-04-17 10:28 | 37.11982 | -74.38378 | 13944 ft | 576 kts | 246° |
| 2026-04-17 10:28 | 37.09901 | -74.42641 | 13925 ft | 575 kts | 225° |
| 2026-04-17 10:28 | 37.06731 | -74.45781 | 13946 ft | 576 kts | 210° |
| 2026-04-17 10:28 | 37.03043 | -74.47717 | 13933 ft | 576 kts | 194° |
| 2026-04-17 10:29 | 36.99082 | -74.48347 | 13943 ft | 576 kts | 179° |
| 2026-04-17 10:29 | 36.95126 | -74.47636 | 13939 ft | 576 kts | 163° |
| 2026-04-17 10:29 | 36.91464 | -74.45631 | 13940 ft | 576 kts | 148° |
| 2026-04-17 10:29 | 36.88363 | -74.42483 | 13940 ft | 576 kts | 132° |
| 2026-04-17 10:30 | 36.86047 | -74.38418 | 13940 ft | 576 kts | 117° |
| 2026-04-17 10:30 | 36.84680 | -74.33719 | 13940 ft | 576 kts | 101° |
| 2026-04-17 10:30 | 36.84369 | -74.28749 | 13940 ft | 576 kts | 86° |
| 2026-04-17 10:30 | 36.85112 | -74.23917 | 13940 ft | 576 kts | 71° |
| 2026-04-17 10:31 | 36.86743 | -74.19273 | 13944 ft | 577 kts | 63° |
| 2026-04-17 10:31 | 36.88563 | -74.14797 | 13929 ft | 578 kts | 63° |
| 2026-04-17 10:31 | 36.90396 | -74.10341 | 13943 ft | 578 kts | 63° |
| 2026-04-17 10:31 | 36.92220 | -74.05865 | 13939 ft | 579 kts | 63° |
| 2026-04-17 10:32 | 36.93706 | -74.01292 | 14541 ft | 538 kts | 98° |
| 2026-04-17 10:32 | 36.91437 | -73.98173 | 17356 ft | 499 kts | 126° |
| 2026-04-17 10:32 | 36.92618 | -73.95441 | 17572 ft | 474 kts | 343° |
| 2026-04-17 10:32 | 36.93796 | -73.98507 | 18018 ft | 449 kts | 250° |
| 2026-04-17 10:33 | 36.92839 | -74.02296 | 16834 ft | 481 kts | 256° |
| 2026-04-17 10:33 | 36.92012 | -74.06514 | 16165 ft | 496 kts | 254° |
| 2026-04-17 10:33 | 36.90901 | -74.10566 | 16335 ft | 494 kts | 246° |
| 2026-04-17 10:33 | 36.89507 | -74.14509 | 16331 ft | 496 kts | 245° |
| 2026-04-17 10:34 | 36.88100 | -74.18469 | 16284 ft | 508 kts | 253° |
| 2026-04-17 10:34 | 36.87393 | -74.22888 | 16071 ft | 514 kts | 273° |
| 2026-04-17 10:34 | 36.88378 | -74.26926 | 18745 ft | 499 kts | 296° |
| 2026-04-17 10:34 | 36.90321 | -74.30700 | 20845 ft | 522 kts | 324° |
| 2026-04-17 10:35 | 36.93193 | -74.29904 | 22305 ft | 470 kts | 66° |
| 2026-04-17 10:35 | 36.93494 | -74.25907 | 22511 ft | 464 kts | 92° |
| 2026-04-17 10:35 | 36.93337 | -74.22018 | 22678 ft | 441 kts | 93° |
| 2026-04-17 10:35 | 36.93201 | -74.19071 | 22617 ft | 436 kts | 93° |
| 2026-04-17 10:36 | 36.93196 | -74.18952 | 22630 ft | 434 kts | 93° |
| 2026-04-17 10:36 | 36.92873 | -74.15222 | 22626 ft | 426 kts | 98° |
| 2026-04-17 10:37 | 36.92451 | -74.11592 | 22619 ft | 418 kts | 98° |
| 2026-04-17 10:37 | 36.92017 | -74.08031 | 22614 ft | 411 kts | 99° |
| 2026-04-17 10:37 | 36.91568 | -74.04534 | 22623 ft | 404 kts | 99° |
| 2026-04-17 10:37 | 36.91100 | -74.01093 | 22620 ft | 399 kts | 100° |
| 2026-04-17 10:38 | 36.90475 | -73.97751 | 22614 ft | 392 kts | 113° |
| 2026-04-17 10:38 | 36.89033 | -73.94920 | 22632 ft | 385 kts | 135° |
| 2026-04-17 10:38 | 36.86880 | -73.93005 | 22621 ft | 379 kts | 156° |
| 2026-04-17 10:38 | 36.84355 | -73.92262 | 22607 ft | 372 kts | 183° |
| 2026-04-17 10:39 | 36.82026 | -73.93373 | 22643 ft | 360 kts | 224° |
| 2026-04-17 10:39 | 36.80879 | -73.96027 | 22620 ft | 350 kts | 265° |
| 2026-04-17 10:39 | 36.81446 | -73.98855 | 22615 ft | 340 kts | 309° |
| 2026-04-17 10:39 | 36.83368 | -74.00369 | 22627 ft | 329 kts | 353° |
| 2026-04-17 10:40 | 36.85649 | -74.00297 | 22592 ft | 328 kts | 5° |
| 2026-04-17 10:40 | 36.87904 | -74.00031 | 22599 ft | 327 kts | 5° |
| 2026-04-17 10:40 | 36.89670 | -74.05868 | 22682 ft | 324 kts | 6° |
| 2026-04-17 10:40 | 36.91933 | -74.05625 | 22916 ft | 329 kts | 355° |
| 2026-04-17 10:41 | 36.94063 | -74.06532 | 23255 ft | 327 kts | 321° |
| 2026-04-17 10:41 | 36.95165 | -74.08990 | 23813 ft | 349 kts | 270° |
| 2026-04-17 10:41 | 36.94187 | -74.11842 | 24786 ft | 393 kts | 217° |
| 2026-04-17 10:41 | 36.91612 | -74.13580 | 25774 ft | 445 kts | 195° |
| 2026-04-17 10:42 | 36.88523 | -74.13647 | 27036 ft | 459 kts | 165° |
| 2026-04-17 10:42 | 36.85883 | -74.11956 | 28311 ft | 400 kts | 140° |
| 2026-04-17 10:42 | 36.84035 | -74.09465 | 27270 ft | 394 kts | 116° |
| 2026-04-17 10:42 | 36.83543 | -74.06163 | 25848 ft | 393 kts | 82° |
| 2026-04-17 10:43 | 36.84563 | -74.03038 | 24300 ft | 396 kts | 49° |
| 2026-04-17 10:43 | 36.86666 | -74.00744 | 22707 ft | 403 kts | 33° |
| 2026-04-17 10:43 | 36.89057 | -73.98950 | 22081 ft | 383 kts | 31° |
| 2026-04-17 10:43 | 36.91279 | -73.97212 | 22941 ft | 360 kts | 32° |
| 2026-04-17 10:44 | 36.93298 | -73.95597 | 23782 ft | 340 kts | 33° |
| 2026-04-17 10:44 | 36.95322 | -73.93977 | 23751 ft | 351 kts | 33° |
| 2026-04-17 10:44 | 36.97358 | -73.92344 | 23756 ft | 347 kts | 33° |
| 2026-04-17 10:44 | 36.99397 | -73.90709 | 23820 ft | 349 kts | 32° |
| 2026-04-17 10:45 | 37.01435 | -73.89076 | 23788 ft | 348 kts | 33° |
| 2026-04-17 10:45 | 37.03476 | -73.87436 | 23780 ft | 348 kts | 36° |
| 2026-04-17 10:45 | 37.05167 | -73.85346 | 23792 ft | 349 kts | 39° |
| 2026-04-17 10:45 | 37.07215 | -73.83765 | 23766 ft | 348 kts | 21° |
| 2026-04-17 10:46 | 37.09589 | -73.83050 | 23732 ft | 348 kts | 3° |
| 2026-04-17 10:46 | 37.11963 | -73.83287 | 23729 ft | 348 kts | 345° |
| 2026-04-17 10:46 | 37.14197 | -73.84446 | 23720 ft | 348 kts | 327° |
| 2026-04-17 10:46 | 37.16027 | -73.86410 | 23717 ft | 348 kts | 309° |
| 2026-04-17 10:47 | 37.17282 | -73.88989 | 23721 ft | 348 kts | 291° |
| 2026-04-17 10:47 | 37.17838 | -73.91929 | 23720 ft | 348 kts | 273° |
| 2026-04-17 10:47 | 37.17663 | -73.94946 | 23719 ft | 348 kts | 257° |
| 2026-04-17 10:47 | 37.16873 | -73.97805 | 23718 ft | 348 kts | 243° |
| 2026-04-17 10:48 | 37.15534 | -74.00322 | 23721 ft | 348 kts | 228° |
| 2026-04-17 10:48 | 37.13734 | -74.02333 | 23720 ft | 348 kts | 213° |
| 2026-04-17 10:48 | 37.11621 | -74.03697 | 23720 ft | 348 kts | 199° |
| 2026-04-17 10:48 | 37.09229 | -74.04371 | 23720 ft | 348 kts | 184° |
| 2026-04-17 10:49 | 37.06829 | -74.04267 | 23720 ft | 348 kts | 170° |
| 2026-04-17 10:49 | 37.04447 | -74.03702 | 23720 ft | 347 kts | 181° |
| 2026-04-17 10:49 | 37.02132 | -74.04445 | 23733 ft | 348 kts | 212° |
| 2026-04-17 10:49 | 37.00438 | -74.06562 | 23721 ft | 348 kts | 241° |
| 2026-04-17 10:50 | 36.99567 | -74.09374 | 23734 ft | 348 kts | 252° |
| 2026-04-17 10:50 | 36.98850 | -74.12265 | 23701 ft | 347 kts | 253° |
| 2026-04-17 10:50 | 36.98127 | -74.15154 | 23724 ft | 349 kts | 252° |
| 2026-04-17 10:50 | 36.97369 | -74.18033 | 23722 ft | 348 kts | 252° |
| 2026-04-17 10:51 | 36.96610 | -74.20906 | 23720 ft | 348 kts | 251° |
| 2026-04-17 10:51 | 36.95955 | -74.23803 | 23718 ft | 347 kts | 262° |
| 2026-04-17 10:51 | 36.95709 | -74.26816 | 23722 ft | 348 kts | 265° |
| 2026-04-17 10:51 | 36.95493 | -74.29831 | 23715 ft | 348 kts | 265° |
| 2026-04-17 10:52 | 36.95349 | -74.31822 | 23719 ft | 348 kts | 265° |
| 2026-04-17 10:52 | 36.95056 | -74.35853 | 23721 ft | 348 kts | 265° |
| 2026-04-17 10:52 | 36.94835 | -74.38863 | 23719 ft | 348 kts | 265° |
| 2026-04-17 10:52 | 36.94613 | -74.41877 | 23720 ft | 348 kts | 265° |
| 2026-04-17 10:53 | 36.94466 | -74.43866 | 23720 ft | 348 kts | 264° |
| 2026-04-17 10:53 | 36.94243 | -74.46877 | 23720 ft | 348 kts | 264° |
| 2026-04-17 10:53 | 36.94019 | -74.49892 | 23720 ft | 348 kts | 264° |
| 2026-04-17 10:53 | 36.93794 | -74.52906 | 23720 ft | 348 kts | 264° |
| 2026-04-17 10:54 | 36.93570 | -74.55917 | 23720 ft | 348 kts | 265° |
| 2026-04-17 10:54 | 36.93346 | -74.58924 | 23720 ft | 348 kts | 264° |
| 2026-04-17 10:54 | 36.93124 | -74.61879 | 23720 ft | 348 kts | 264° |
| 2026-04-17 10:54 | 36.92892 | -74.64937 | 23720 ft | 348 kts | 264° |
| 2026-04-17 10:55 | 36.92760 | -74.66684 | 23720 ft | 348 kts | 264° |
| 2026-04-17 10:55 | 36.92561 | -74.69631 | 23715 ft | 348 kts | 271° |
| 2026-04-17 10:55 | 36.93093 | -74.72556 | 23732 ft | 348 kts | 297° |
| 2026-04-17 10:55 | 36.94531 | -74.74981 | 23253 ft | 350 kts | 320° |
| 2026-04-17 10:56 | 36.96632 | -74.76393 | 22680 ft | 342 kts | 346° |
| 2026-04-17 10:56 | 36.98984 | -74.76503 | 22119 ft | 342 kts | 12° |
| 2026-04-17 10:56 | 37.01252 | -74.75654 | 21557 ft | 337 kts | 19° |
| 2026-04-17 10:56 | 37.03450 | -74.74705 | 20981 ft | 332 kts | 19° |
| 2026-04-17 10:57 | 37.05616 | -74.73723 | 20406 ft | 329 kts | 20° |
| 2026-04-17 10:57 | 37.07709 | -74.72721 | 19845 ft | 327 kts | 21° |
| 2026-04-17 10:57 | 37.09843 | -74.71632 | 19267 ft | 324 kts | 23° |
| 2026-04-17 10:57 | 37.11895 | -74.70508 | 18706 ft | 321 kts | 24° |
| 2026-04-17 10:58 | 37.13891 | -74.69320 | 18153 ft | 318 kts | 26° |
| 2026-04-17 10:58 | 37.15857 | -74.68028 | 17597 ft | 315 kts | 29° |
| 2026-04-17 10:58 | 37.17740 | -74.66636 | 17049 ft | 313 kts | 32° |
| 2026-04-17 10:58 | 37.19519 | -74.65119 | 16509 ft | 310 kts | 37° |
| 2026-04-17 10:59 | 37.21200 | -74.63406 | 15966 ft | 308 kts | 42° |
| 2026-04-17 10:59 | 37.22692 | -74.61499 | 15431 ft | 305 kts | 50° |
| 2026-04-17 10:59 | 37.23928 | -74.59382 | 14906 ft | 303 kts | 59° |
| 2026-04-17 10:59 | 37.24863 | -74.57028 | 14380 ft | 300 kts | 69° |
| 2026-04-17 11:00 | 37.25449 | -74.54526 | 13859 ft | 298 kts | 78° |
| 2026-04-17 11:00 | 37.25727 | -74.51973 | 13345 ft | 295 kts | 86° |
| 2026-04-17 11:00 | 37.25776 | -74.49399 | 12832 ft | 293 kts | 91° |
| 2026-04-17 11:00 | 37.25672 | -74.46848 | 12322 ft | 291 kts | 95° |
| 2026-04-17 11:01 | 37.25472 | -74.44327 | 11817 ft | 293 kts | 97° |
| 2026-04-17 11:01 | 37.25210 | -74.41802 | 11308 ft | 287 kts | 98° |
| 2026-04-17 11:01 | 37.24915 | -74.39334 | 10812 ft | 290 kts | 99° |
| 2026-04-17 11:01 | 37.24595 | -74.36854 | 10308 ft | 285 kts | 99° |
| 2026-04-17 11:02 | 37.24261 | -74.34392 | 9810 ft | 286 kts | 99° |
| 2026-04-17 11:02 | 37.23921 | -74.31950 | 9314 ft | 282 kts | 100° |
| 2026-04-17 11:02 | 37.23585 | -74.29588 | 8834 ft | 278 kts | 100° |
| 2026-04-17 11:02 | 37.23240 | -74.27188 | 8820 ft | 280 kts | 100° |
| 2026-04-17 11:03 | 37.22893 | -74.24791 | 8808 ft | 279 kts | 100° |
| 2026-04-17 11:03 | 37.22543 | -74.22391 | 8788 ft | 280 kts | 100° |
| 2026-04-17 11:03 | 37.22194 | -74.20004 | 8799 ft | 277 kts | 100° |
| 2026-04-17 11:03 | 37.21844 | -74.17615 | 8806 ft | 279 kts | 100° |
| 2026-04-17 11:04 | 37.21494 | -74.15227 | 8798 ft | 278 kts | 100° |
| 2026-04-17 11:04 | 37.21144 | -74.12837 | 8798 ft | 278 kts | 100° |
| 2026-04-17 11:04 | 37.20792 | -74.10447 | 8801 ft | 280 kts | 100° |
| 2026-04-17 11:04 | 37.20437 | -74.08024 | 8806 ft | 303 kts | 100° |
| 2026-04-17 11:05 | 37.20063 | -74.05481 | 8796 ft | 297 kts | 100° |
| 2026-04-17 11:05 | 37.19690 | -74.02930 | 8801 ft | 292 kts | 100° |
| 2026-04-17 11:05 | 37.19317 | -74.00384 | 8802 ft | 295 kts | 100° |
| 2026-04-17 11:05 | 37.18949 | -73.97863 | 8799 ft | 294 kts | 100° |
| 2026-04-17 11:06 | 37.18579 | -73.95334 | 8648 ft | 298 kts | 100° |
| 2026-04-17 11:06 | 37.18209 | -73.92811 | 8407 ft | 292 kts | 100° |
| 2026-04-17 11:06 | 37.17843 | -73.90297 | 8153 ft | 294 kts | 100° |
| 2026-04-17 11:06 | 37.17481 | -73.87819 | 7898 ft | 292 kts | 100° |
| 2026-04-17 11:07 | 37.17117 | -73.85326 | 7640 ft | 289 kts | 100° |
| 2026-04-17 11:07 | 37.16773 | -73.82978 | 7394 ft | 289 kts | 100° |
| 2026-04-17 11:07 | 37.16411 | -73.80501 | 7139 ft | 290 kts | 100° |
| 2026-04-17 11:07 | 37.16049 | -73.78029 | 6882 ft | 286 kts | 100° |
| 2026-04-17 11:08 | 37.15694 | -73.75602 | 6630 ft | 288 kts | 100° |
| 2026-04-17 11:08 | 37.15330 | -73.73114 | 6372 ft | 286 kts | 100° |
| 2026-04-17 11:08 | 37.14973 | -73.70679 | 6119 ft | 283 kts | 100° |
| 2026-04-17 11:08 | 37.14786 | -73.69404 | 5986 ft | 284 kts | 100° |
| 2026-04-17 11:09 | 37.14714 | -73.68912 | 5936 ft | 286 kts | 100° |
| 2026-04-17 11:09 | 37.14534 | -73.67686 | 5808 ft | 282 kts | 100° |
| 2026-04-17 11:09 | 37.14359 | -73.66493 | 5684 ft | 281 kts | 100° |
| 2026-04-17 11:10 | 37.13651 | -73.61666 | 5183 ft | 281 kts | 100° |
| 2026-04-17 11:10 | 37.13298 | -73.59265 | 4932 ft | 279 kts | 100° |
| 2026-04-17 11:10 | 37.12947 | -73.56872 | 4685 ft | 281 kts | 100° |
| 2026-04-17 11:10 | 37.12595 | -73.54481 | 4584 ft | 275 kts | 100° |
| 2026-04-17 11:11 | 37.12244 | -73.52099 | 4586 ft | 281 kts | 100° |
| 2026-04-17 11:11 | 37.11899 | -73.49751 | 4572 ft | 261 kts | 100° |
| 2026-04-17 11:11 | 37.11603 | -73.47744 | 4592 ft | 198 kts | 100° |
| 2026-04-17 11:11 | 37.11397 | -73.46363 | 4558 ft | 133 kts | 101° |
| 2026-04-17 11:12 | 37.11226 | -73.45242 | 4590 ft | 133 kts | 101° |
| 2026-04-17 11:12 | 37.11049 | -73.44104 | 4593 ft | 133 kts | 101° |
| 2026-04-17 11:12 | 37.10867 | -73.42959 | 4318 ft | 137 kts | 101° |
| 2026-04-17 11:12 | 37.10715 | -73.41794 | 3769 ft | 134 kts | 96° |
| 2026-04-17 11:13 | 37.10627 | -73.40645 | 3212 ft | 132 kts | 95° |
| 2026-04-17 11:13 | 37.10524 | -73.39484 | 2708 ft | 134 kts | 96° |
| 2026-04-17 11:13 | 37.10397 | -73.38350 | 2355 ft | 133 kts | 102° |
| 2026-04-17 11:13 | 37.10179 | -73.37239 | 2137 ft | 128 kts | 105° |
| 2026-04-17 11:14 | 37.09948 | -73.36143 | 1937 ft | 129 kts | 104° |
| 2026-04-17 11:14 | 37.09713 | -73.35050 | 1724 ft | 131 kts | 104° |
| 2026-04-17 11:14 | 37.09487 | -73.33966 | 1592 ft | 130 kts | 105° |
| 2026-04-17 11:14 | 37.09249 | -73.32881 | 1409 ft | 129 kts | 104° |
| 2026-04-17 11:15 | 37.09012 | -73.31785 | 1167 ft | 128 kts | 105° |
| 2026-04-17 11:15 | 37.08800 | -73.30694 | 960 ft | 130 kts | 104° |
| 2026-04-17 11:15 | 37.08587 | -73.29610 | 755 ft | 129 kts | 102° |
| 2026-04-17 11:15 | 37.08388 | -73.28524 | 596 ft | 126 kts | 103° |
| 2026-04-17 11:16 | 37.08175 | -73.27447 | 466 ft | 125 kts | 105° |
| 2026-04-17 11:16 | 37.07931 | -73.26391 | 364 ft | 126 kts | 106° |
| 2026-04-17 11:16 | 37.07712 | -73.25317 | 171 ft | 129 kts | 104° |
| 2026-04-17 11:16 | 37.07546 | -73.24515 | 73 ft | 35 kts | 101° |
| 2026-04-17 11:17 | 37.07458 | -73.24213 | 73 ft | 41 kts | 124° |
| 2026-04-17 11:17 | 37.07360 | -73.23944 | 73 ft | 35 kts | 327° |
| 2026-04-17 11:17 | 37.07306 | -73.23759 | 73 ft | 35 kts | 327° |
| 2026-04-17 11:17 | 37.07288 | -73.23696 | 73 ft | 35 kts | 327° |
| 2026-04-17 11:18 | 37.07204 | -73.23410 | 73 ft | 35 kts | 327° |
| 2026-04-17 11:18 | 37.07141 | -73.23189 | 73 ft | 27 kts | 278° |
| 2026-04-17 11:18 | 37.07074 | -73.22919 | 73 ft | 41 kts | 92° |
| 2026-04-17 11:18 | 37.06965 | -73.22552 | 73 ft | 48 kts | 120° |
| 2026-04-17 11:19 | 37.06864 | -73.22214 | 73 ft | 36 kts | 108° |
| 2026-04-17 11:19 | 37.06777 | -73.21914 | 73 ft | 35 kts | 108° |
| 2026-04-17 11:19 | 37.06419 | -73.20462 | 1548 ft | 214 kts | 107° |
| 2026-04-17 11:19 | 37.05787 | -73.18520 | 3203 ft | 274 kts | 124° |
| 2026-04-17 11:20 | 37.04233 | -73.16740 | 5238 ft | 336 kts | 150° |
| 2026-04-17 11:20 | 37.01973 | -73.15787 | 7560 ft | 344 kts | 174° |
| 2026-04-17 11:20 | 36.99566 | -73.16042 | 9931 ft | 357 kts | 197° |
| 2026-04-17 11:20 | 36.97325 | -73.17509 | 12418 ft | 374 kts | 219° |
| 2026-04-17 11:21 | 36.95349 | -73.19887 | 13371 ft | 414 kts | 228° |
| 2026-04-17 11:21 | 36.93968 | -73.22895 | 12982 ft | 396 kts | 252° |
| 2026-04-17 11:21 | 36.93568 | -73.26281 | 13019 ft | 396 kts | 267° |
| 2026-04-17 11:21 | 36.93455 | -73.29726 | 13061 ft | 397 kts | 268° |
| 2026-04-17 11:22 | 36.93345 | -73.33169 | 13028 ft | 396 kts | 268° |
| 2026-04-17 11:22 | 36.93234 | -73.36601 | 13039 ft | 396 kts | 268° |
| 2026-04-17 11:22 | 36.93122 | -73.40041 | 13044 ft | 396 kts | 268° |
| 2026-04-17 11:22 | 36.93009 | -73.43480 | 13038 ft | 396 kts | 268° |
| 2026-04-17 11:23 | 36.92895 | -73.46918 | 13040 ft | 396 kts | 268° |
| 2026-04-17 11:23 | 36.92780 | -73.50358 | 13041 ft | 396 kts | 268° |
| 2026-04-17 11:23 | 36.92664 | -73.53799 | 13040 ft | 396 kts | 268° |
| 2026-04-17 11:23 | 36.92547 | -73.57235 | 13040 ft | 396 kts | 268° |
| 2026-04-17 11:24 | 36.92428 | -73.60677 | 13040 ft | 396 kts | 267° |
| 2026-04-17 11:24 | 36.92310 | -73.64109 | 13040 ft | 396 kts | 267° |
| 2026-04-17 11:24 | 36.92191 | -73.67503 | 13040 ft | 396 kts | 267° |
| 2026-04-17 11:24 | 36.92070 | -73.70944 | 13040 ft | 396 kts | 267° |
| 2026-04-17 11:25 | 36.91947 | -73.74424 | 13040 ft | 396 kts | 267° |
| 2026-04-17 11:25 | 36.91824 | -73.77862 | 13040 ft | 396 kts | 267° |
| 2026-04-17 11:25 | 36.91701 | -73.81259 | 13040 ft | 396 kts | 267° |
| 2026-04-17 11:25 | 36.91576 | -73.84700 | 13040 ft | 396 kts | 267° |
| 2026-04-17 11:26 | 36.91450 | -73.88138 | 13040 ft | 396 kts | 267° |
| 2026-04-17 11:26 | 36.91323 | -73.91574 | 13040 ft | 396 kts | 267° |
| 2026-04-17 11:26 | 36.91195 | -73.95014 | 13040 ft | 396 kts | 267° |
| 2026-04-17 11:26 | 36.91066 | -73.98451 | 13040 ft | 396 kts | 267° |
| 2026-04-17 11:27 | 36.90936 | -74.01891 | 13040 ft | 396 kts | 267° |
| 2026-04-17 11:27 | 36.90805 | -74.05327 | 13040 ft | 396 kts | 267° |
| 2026-04-17 11:27 | 36.90673 | -74.08765 | 13040 ft | 396 kts | 267° |
| 2026-04-17 11:27 | 36.90540 | -74.12204 | 13040 ft | 396 kts | 267° |
| 2026-04-17 11:28 | 36.90406 | -74.15637 | 13040 ft | 396 kts | 267° |
| 2026-04-17 11:28 | 36.90373 | -74.16491 | 13040 ft | 396 kts | 267° |
| 2026-04-17 11:28 | 36.90237 | -74.19928 | 13040 ft | 396 kts | 267° |
| 2026-04-17 11:28 | 36.90101 | -74.23363 | 13040 ft | 396 kts | 267° |
| 2026-04-17 11:29 | 36.89964 | -74.26795 | 13040 ft | 396 kts | 267° |
| 2026-04-17 11:29 | 36.89826 | -74.30230 | 13040 ft | 396 kts | 267° |
| 2026-04-17 11:29 | 36.89687 | -74.33668 | 13040 ft | 396 kts | 267° |
| 2026-04-17 11:29 | 36.89547 | -74.37106 | 13040 ft | 396 kts | 267° |
| 2026-04-17 11:30 | 36.89406 | -74.40541 | 13040 ft | 396 kts | 267° |
| 2026-04-17 11:30 | 36.89264 | -74.43975 | 13040 ft | 396 kts | 267° |
| 2026-04-17 11:30 | 36.89120 | -74.47413 | 13040 ft | 396 kts | 267° |
| 2026-04-17 11:30 | 36.88976 | -74.50847 | 13040 ft | 396 kts | 267° |
| 2026-04-17 11:31 | 36.88831 | -74.54283 | 13040 ft | 396 kts | 267° |
| 2026-04-17 11:31 | 36.88685 | -74.57712 | 13040 ft | 396 kts | 267° |
| 2026-04-17 11:31 | 36.88538 | -74.61150 | 13040 ft | 396 kts | 267° |
| 2026-04-17 11:31 | 36.88390 | -74.64585 | 13040 ft | 396 kts | 267° |
| 2026-04-17 11:32 | 36.88241 | -74.68018 | 13040 ft | 396 kts | 267° |
| 2026-04-17 11:32 | 36.88091 | -74.71450 | 13040 ft | 396 kts | 267° |
| 2026-04-17 11:32 | 36.87940 | -74.74888 | 13040 ft | 396 kts | 267° |
| 2026-04-17 11:32 | 36.87788 | -74.78318 | 13040 ft | 396 kts | 266° |
| 2026-04-17 11:33 | 36.87635 | -74.81753 | 13040 ft | 396 kts | 266° |
| 2026-04-17 11:33 | 36.87481 | -74.85185 | 13040 ft | 396 kts | 266° |
| 2026-04-17 11:33 | 36.87326 | -74.88620 | 13040 ft | 396 kts | 266° |
| 2026-04-17 11:33 | 36.87169 | -74.92054 | 13040 ft | 396 kts | 266° |
| 2026-04-17 11:34 | 36.87013 | -74.95482 | 13040 ft | 396 kts | 266° |
| 2026-04-17 11:34 | 36.86915 | -74.97760 | 13039 ft | 396 kts | 268° |
| 2026-04-17 11:34 | 36.86883 | -75.01194 | 13041 ft | 396 kts | 270° |
| 2026-04-17 11:34 | 36.86871 | -75.04632 | 13040 ft | 396 kts | 270° |
| 2026-04-17 11:35 | 36.86859 | -75.07985 | 13040 ft | 396 kts | 270° |
| 2026-04-17 11:35 | 36.86846 | -75.11507 | 13040 ft | 396 kts | 270° |
| 2026-04-17 11:35 | 36.86831 | -75.14949 | 13040 ft | 396 kts | 270° |
| 2026-04-17 11:35 | 36.86853 | -75.18388 | 13040 ft | 396 kts | 271° |
| 2026-04-17 11:36 | 36.86926 | -75.21824 | 13040 ft | 396 kts | 272° |
| 2026-04-17 11:36 | 36.86977 | -75.25259 | 13040 ft | 396 kts | 270° |
| 2026-04-17 11:36 | 36.86977 | -75.28701 | 13040 ft | 396 kts | 270° |
| 2026-04-17 11:36 | 36.86965 | -75.32137 | 13040 ft | 396 kts | 270° |
| 2026-04-17 11:37 | 36.86952 | -75.35574 | 13040 ft | 396 kts | 270° |
| 2026-04-17 11:37 | 36.86940 | -75.39014 | 13040 ft | 396 kts | 270° |
| 2026-04-17 11:37 | 36.86927 | -75.42456 | 13040 ft | 396 kts | 270° |
| 2026-04-17 11:37 | 36.86915 | -75.45895 | 13040 ft | 396 kts | 270° |
| 2026-04-17 11:38 | 36.86902 | -75.49332 | 13040 ft | 396 kts | 270° |
| 2026-04-17 11:38 | 36.86889 | -75.52768 | 13040 ft | 396 kts | 270° |
| 2026-04-17 11:38 | 36.86877 | -75.56209 | 13040 ft | 396 kts | 270° |
| 2026-04-17 11:38 | 36.86864 | -75.59648 | 13040 ft | 396 kts | 270° |
| 2026-04-17 11:39 | 36.86852 | -75.63080 | 13040 ft | 396 kts | 270° |
| 2026-04-17 11:39 | 36.86938 | -75.66519 | 12815 ft | 397 kts | 275° |
| 2026-04-17 11:39 | 36.87186 | -75.70179 | 11439 ft | 447 kts | 275° |
| 2026-04-17 11:39 | 36.87465 | -75.74226 | 10128 ft | 481 kts | 275° |
| 2026-04-17 11:40 | 36.87765 | -75.77815 | 9006 ft | 345 kts | 277° |
| 2026-04-17 11:40 | 36.88039 | -75.80404 | 8006 ft | 266 kts | 279° |
| 2026-04-17 11:40 | 36.88325 | -75.82557 | 7299 ft | 244 kts | 279° |
| 2026-04-17 11:40 | 36.88606 | -75.84664 | 5993 ft | 238 kts | 280° |
| 2026-04-17 11:41 | 36.88865 | -75.86552 | 5068 ft | 207 kts | 279° |
| 2026-04-17 11:41 | 36.89088 | -75.88237 | 4369 ft | 196 kts | 279° |
| 2026-04-17 11:41 | 36.89305 | -75.89926 | 3692 ft | 200 kts | 279° |
| 2026-04-17 11:41 | 36.89463 | -75.91184 | 3061 ft | 206 kts | 279° |
| 2026-04-17 11:42 | 36.89515 | -75.93037 | 2385 ft | 208 kts | 261° |
| 2026-04-17 11:42 | 36.89116 | -75.94629 | 2103 ft | 176 kts | 245° |
| 2026-04-17 11:42 | 36.88621 | -75.95778 | 1787 ft | 134 kts | 233° |
| 2026-04-17 11:42 | 36.87966 | -75.96589 | 1509 ft | 132 kts | 222° |
| 2026-04-17 11:43 | 36.87280 | -75.97367 | 1316 ft | 131 kts | 223° |
| 2026-04-17 11:43 | 36.86604 | -75.98147 | 1137 ft | 133 kts | 221° |
| 2026-04-17 11:43 | 36.85918 | -75.98910 | 939 ft | 134 kts | 222° |
| 2026-04-17 11:43 | 36.85238 | -75.99680 | 752 ft | 129 kts | 222° |
| 2026-04-17 11:44 | 36.84558 | -76.00450 | 531 ft | 132 kts | 223° |
| 2026-04-17 11:44 | 36.83890 | -76.01219 | 347 ft | 132 kts | 223° |
| 2026-04-17 11:44 | 36.83211 | -76.01986 | 121 ft | 129 kts | 221° |
| 2026-04-17 11:44 | 36.82568 | -76.02721 | 30 ft | 93 kts | 223° |
| 2026-04-17 11:45 | 36.82359 | -76.02957 | 30 ft | 29 kts | 221° |
| 2026-04-17 11:45 | 36.82167 | -76.03173 | 30 ft | 45 kts | 222° |
| 2026-04-17 11:45 | 36.81975 | -76.03393 | 30 ft | 30 kts | 222° |
| 2026-04-17 11:45 | 36.81802 | -76.03584 | 30 ft | 35 kts | 224° |
| 2026-04-17 11:46 | 36.81637 | -76.03772 | 30 ft | 20 kts | 207° |
| 2026-04-17 11:46 | 36.81545 | -76.03717 | 30 ft | 21 kts | 131° |
| 2026-04-17 11:46 | 36.81475 | -76.03622 | 30 ft | 9 kts | 133° |
| 2026-04-17 11:46 | 36.81400 | -76.03522 | 30 ft | 0 kts | 133° |
| 2026-04-17 11:47 | 36.81394 | -76.03497 | 30 ft | 5 kts | 44° |
| 2026-04-17 11:47 | 36.81397 | -76.03494 | 30 ft | 0 kts | 44° |